This is the latest recevied weather packets stored in our database for station/object XW7RMR. If no packets are shown the sender has not sent any weather packets the latest 10 day(s).
| Time | Temp. | Humidity | Pressure | Rain* | Wind** | Luminosity | Snow |
|---|---|---|---|---|---|---|---|
| 1777546795 | 8.33° C | 96% | 1017.9 hPa | 0 mm | - | 0 W/m² | - |
| 1777546492 | 8.33° C | 96% | 1017.8 hPa | 0 mm | - | 0 W/m² | - |
| 1777546189 | 8.33° C | 96% | 1017.9 hPa | 0 mm | - | 0 W/m² | - |
| 1777545885 | 8.33° C | 96% | 1017.9 hPa | 0 mm | - | 0 W/m² | - |
| 1777545582 | 8.89° C | 95% | 1017.9 hPa | 0 mm | - | 0 W/m² | - |
| 1777545278 | 8.89° C | 94% | 1017.9 hPa | 0 mm | - | 0 W/m² | - |
| 1777544976 | 8.89° C | 94% | 1017.8 hPa | 0 mm | - | 0 W/m² | - |
| 1777544672 | 8.89° C | 94% | 1017.8 hPa | 0 mm | - | 0 W/m² | - |
| 1777544368 | 9.44° C | 94% | 1017.8 hPa | 0 mm | - | 0 W/m² | - |
| 1777544065 | 9.44° C | 94% | 1017.8 hPa | 0 mm | - | 0 W/m² | - |
| 1777543763 | 9.44° C | 93% | 1017.8 hPa | 0 mm | - | 0 W/m² | - |
| 1777543458 | 9.44° C | 91% | 1017.8 hPa | 0 mm | - | 0 W/m² | - |
| 1777543154 | 10° C | 87% | 1017.7 hPa | 0 mm | - | 0 W/m² | - |
| 1777542851 | 11.11° C | 82% | 1017.6 hPa | 0 mm | - | 0 W/m² | - |
| 1777542548 | 10.56° C | 83% | 1017.6 hPa | 0 mm | - | 0 W/m² | - |
| 1777542243 | 10° C | 86% | 1017.5 hPa | 0 mm | - | 0 W/m² | - |
| 1777541941 | 10° C | 87% | 1017.7 hPa | 0 mm | - | 0 W/m² | - |
| 1777541638 | 10° C | 88% | 1017.7 hPa | 0 mm | - | 0 W/m² | - |
| 1777541335 | 10° C | 88% | 1017.9 hPa | 0 mm | - | 0 W/m² | - |
| 1777541030 | 10° C | 89% | 1017.9 hPa | 0 mm | - | 0 W/m² | - |
| 1777540727 | 10° C | 90% | 1017.9 hPa | 0 mm | - | 0 W/m² | - |
| 1777540425 | 10° C | 91% | 1017.9 hPa | 0 mm | - | 0 W/m² | - |
| 1777540121 | 10° C | 90% | 1018 hPa | 0 mm | - | 0 W/m² | - |
| 1777539822 | 10.56° C | 87% | 1018 hPa | 0 mm | - | 0 W/m² | - |
| 1777539518 | 11.67° C | 80% | 1018.1 hPa | 0 mm | - | 0 W/m² | - |
* Rain latest hour (hover to see other rain measurements)
** Current wind speed in m/s (hover to see current wind gust speed)